Impacts TAF Board INFO
FOR SITUATIONAL AWARENESS. NOT TO BE USED FOR FLIGHT PLANNING PURPOSES.
IDs:

KPHX - Phoenix/Sky Harbor, AZ, US

Issued at 2320 UTC 17 Jan 2017
Updated at 2327 UTC 17 Jan 2017
Potential Impact None Slight Moderate High
Time2251Z 18/00Z 18/01Z 18/02Z 18/03Z 18/04Z 18/05Z 18/06Z 18/07Z 18/08Z 18/09Z 18/10Z 18/11Z 18/12Z
Type OBS PRVL PRVL PRVL PRVL
  [TEMP]  
PRVL
  [TEMP]  
PRVL
  [TEMP]  
PRVL
  [TEMP]  
PRVL PRVL PRVL PRVL PRVL PRVL
VIS 10 >6 >6 >6 >6 >6 >6 >6 >6 >6 >6 >6 >6 >6
CIG 130 -- -- -- --
  [--]  
--
  [--]  
--
  [--]  
--
  [--]  
-- -- -- -- -- --
Cover BKN SCT SCT SCT SCT
  [SCT]  
SCT
  [SCT]  
SCT
  [SCT]  
SCT
  [SCT]  
FEW FEW FEW FEW FEW FEW
FltCat VFR VFR VFR VFR VFR
  [VFR]  
VFR
  [VFR]  
VFR
  [VFR]  
VFR
  [VFR]  
VFR VFR VFR VFR VFR VFR
WX -- -- -- -- --
  [--]  
--
  [--]  
--
  [--]  
--
  [--]  
-- -- -- -- -- --
WDir VRB 270 270 270 270
[VRB]
270
[VRB]
270
[VRB]
270
[VRB]
100 100 100 100 100 100
WSpd 3 4 4 4 4
  [3]  
4
  [3]  
4
  [3]  
4
  [3]  
3 3 3 3 3 3
WGst -- -- -- -- --
  [--]  
--
  [--]  
--
  [--]  
--
  [--]  
-- -- -- -- -- --

Raw TAF
KPHX 172320Z 1800/1824 27004KT P6SM FEW080 SCT120 SCT200
  TEMPO 1803/1807 VRB03KT
  FM180700 10003KT P6SM FEW120
  FM182000 22004KT P6SM FEW090 FEW250


Raw METAR
KPHX 172251Z VRB03KT 10SM FEW050 BKN130 BKN250 17/05 A3002 RMK AO2 SLP159 T01670050
KPHX 172151Z 28003KT 10SM FEW050 SCT110 BKN250 16/06 A3002 RMK AO2 SLP161 T01610056
KPHX 172051Z 30006KT 10SM FEW050 BKN085 BKN110 BKN250 15/06 A3004 RMK AO2 SLP165 T01500061 58016

METAR Board
Radar Display
Forecast Discussion

FOR SITUATIONAL AWARENESS. NOT TO BE USED FOR FLIGHT PLANNING PURPOSES.

Page loaded:  23:27 UTC  |   03:27 PM Pacific  |   04:27 PM Mountain  |   05:27 PM Central  |   06:27 PM Eastern

 

ADVISORIES

FORECASTS

FORECASTS

OBSERVATIONS

USER TOOLS

ABOUT US